Time;durP1;ratioP1;P1;durP2;ratioP2;P2;SDS_P1;SDS_P2;PMS_P1;PMS_P2;Temp;Humidity;BMP_temperature;BMP_pressure;BME280_temperature;BME280_humidity;BME280_pressure;Samples;Min_cycle;Max_cycle;Signal;HPM_P1;HPM_P2
2023/04/01 00:00:26;;;;;;;3.30;1.00;;;;;;;11.80;59.85;96124.75;5048686;28;20442;-69
2023/04/01 00:02:52;;;;;;;1.70;0.80;;;;;;;11.70;60.39;96119.00;5048213;28;20483;-70
2023/04/01 00:05:17;;;;;;;3.40;0.80;;;;;;;11.57;60.35;96120.47;5048197;28;20262;-69
2023/04/01 00:07:43;;;;;;;1.83;0.80;;;;;;;11.61;60.55;96113.03;5037578;28;20680;-69
2023/04/01 00:10:10;;;;;;;2.33;1.40;;;;;;;11.64;60.55;96128.44;5044319;28;20658;-69
2023/04/01 00:12:37;;;;;;;1.73;0.80;;;;;;;11.51;61.00;96129.91;5039188;28;20275;-69
2023/04/01 00:15:04;;;;;;;6.27;1.00;;;;;;;11.67;60.80;96120.97;5048620;28;20540;-69
2023/04/01 00:17:30;;;;;;;5.30;1.00;;;;;;;11.60;60.62;96121.91;5056584;28;21486;-68
2023/04/01 00:19:56;;;;;;;2.27;0.80;;;;;;;11.60;60.84;96121.91;5050150;28;21014;-68
2023/04/01 00:22:21;;;;;;;2.93;1.03;;;;;;;11.70;60.67;96124.25;5048592;28;20202;-70
2023/04/01 00:24:47;;;;;;;2.10;1.17;;;;;;;11.62;60.47;96117.28;5045379;28;20452;-69
2023/04/01 00:27:13;;;;;;;2.90;0.90;;;;;;;11.71;60.49;96121.44;5045389;28;20226;-68
2023/04/01 00:29:44;;;;;;;4.90;1.37;;;;;;;11.81;59.96;96126.38;5046418;28;20195;-69
2023/04/01 00:32:10;;;;;;;5.00;1.73;;;;;;;11.81;59.93;96124.59;5047171;28;20695;-70
2023/04/01 00:34:36;;;;;;;3.20;0.93;;;;;;;11.84;59.76;96126.81;5038938;28;20545;-70
2023/04/01 00:37:02;;;;;;;7.23;1.13;;;;;;;11.88;59.64;96126.44;5034689;28;20237;-70
2023/04/01 00:39:31;;;;;;;3.97;1.00;;;;;;;11.94;59.73;96130.97;5041726;28;20965;-70
2023/04/01 00:41:57;;;;;;;2.30;0.83;;;;;;;11.88;59.66;96136.94;5048650;28;20675;-70
2023/04/01 00:44:28;;;;;;;4.37;0.97;;;;;;;11.96;59.81;96134.22;5048339;28;20422;-70
2023/04/01 00:46:54;;;;;;;3.07;0.90;;;;;;;12.03;59.54;96129.06;5053998;28;20532;-70
2023/04/01 00:49:22;;;;;;;2.57;1.27;;;;;;;12.11;59.62;96139.44;5056267;28;20440;-69
2023/04/01 00:51:50;;;;;;;5.03;0.97;;;;;;;11.99;60.39;96141.72;5023038;28;20543;-68
2023/04/01 00:54:16;;;;;;;2.03;0.90;;;;;;;11.96;60.24;96144.72;5010746;28;20459;-68
2023/04/01 00:56:49;;;;;;;4.77;1.23;;;;;;;12.10;60.07;96140.44;5041458;28;20427;-69
2023/04/01 00:59:19;;;;;;;4.90;0.77;;;;;;;12.07;60.17;96143.44;5035819;28;20450;-69
2023/04/01 01:01:45;;;;;;;2.60;0.90;;;;;;;12.00;60.90;96143.34;5048534;28;20441;-68
2023/04/01 01:04:31;;;;;;;2.83;1.03;;;;;;;11.97;60.75;96146.34;5040288;28;20425;-69
2023/04/01 01:07:03;;;;;;;2.10;0.90;;;;;;;12.04;60.54;96131.50;5048554;28;20252;-69
2023/04/01 01:09:43;;;;;;;3.43;1.13;;;;;;;12.17;60.97;96135.25;5026528;28;20477;-69
2023/04/01 01:12:44;;;;;;;8.30;1.33;;;;;;;12.08;60.82;96138.00;5047786;28;20456;-70
2023/04/01 01:15:25;;;;;;;2.90;0.90;;;;;;;12.14;60.95;96139.06;5022283;28;21147;-70
2023/04/01 01:18:30;;;;;;;2.53;0.90;;;;;;;11.95;61.40;96133.38;5036414;28;20521;-69
2023/04/01 01:21:19;;;;;;;4.40;1.00;;;;;;;12.05;61.56;96133.13;5051619;28;20890;-69
2023/04/01 01:24:03;;;;;;;2.73;0.80;;;;;;;12.12;61.10;96136.59;5042299;28;20430;-69
2023/04/01 01:26:40;;;;;;;1.10;0.80;;;;;;;12.13;60.97;96132.97;5057005;28;20922;-68
2023/04/01 01:29:13;;;;;;;1.77;0.90;;;;;;;12.13;60.97;96140.06;5054541;28;20934;-69
2023/04/01 01:31:57;;;;;;;2.17;0.80;;;;;;;12.08;61.13;96134.53;5047358;28;20453;-69
2023/04/01 01:34:36;;;;;;;2.90;1.00;;;;;;;12.10;61.19;96133.34;5038723;28;20469;-70
2023/04/01 01:37:06;;;;;;;3.57;1.13;;;;;;;12.08;61.30;96138.00;5047007;28;20612;-73
2023/04/01 01:39:34;;;;;;;3.20;0.80;;;;;;;12.11;60.90;96139.44;5052293;28;20436;-69
2023/04/01 01:42:04;;;;;;;2.23;0.80;;;;;;;12.08;61.39;96148.50;5028706;28;20541;-69
2023/04/01 01:44:30;;;;;;;7.90;2.10;;;;;;;12.06;61.36;96140.00;5030751;28;20438;-69
2023/04/01 01:46:56;;;;;;;2.93;0.83;;;;;;;12.04;61.42;96147.25;5036033;28;20442;-70
2023/04/01 01:49:22;;;;;;;2.07;0.83;;;;;;;12.08;61.21;96140.63;5046431;28;20438;-70
2023/04/01 01:51:48;;;;;;;3.37;0.70;;;;;;;12.08;60.93;96134.53;5046891;28;20481;-70
2023/04/01 01:54:17;;;;;;;2.60;0.80;;;;;;;12.15;60.94;96140.69;5051490;28;20569;-71
2023/04/01 01:56:45;;;;;;;2.47;0.97;;;;;;;12.17;61.09;96135.25;5048170;28;20274;-69
2023/04/01 01:59:11;;;;;;;1.60;0.80;;;;;;;12.22;61.09;96132.88;5054230;28;20452;-70
2023/04/01 02:01:41;;;;;;;2.30;0.73;;;;;;;12.22;60.80;96132.88;5044397;28;20469;-70
2023/04/01 02:04:07;;;;;;;2.37;0.80;;;;;;;12.09;60.97;96134.38;5039818;28;20435;-69
2023/04/01 02:06:36;;;;;;;2.93;0.90;;;;;;;12.03;61.51;96135.13;5044879;28;20437;-69
2023/04/01 02:09:10;;;;;;;1.40;0.90;;;;;;;11.88;61.61;96131.69;5046581;28;20440;-69
2023/04/01 02:11:55;;;;;;;2.40;0.90;;;;;;;11.95;61.15;96132.59;5047372;28;20588;-70
2023/04/01 02:14:22;;;;;;;2.13;0.70;;;;;;;11.96;61.17;96129.75;5047943;28;20485;-70
2023/04/01 02:16:57;;;;;;;2.03;0.80;;;;;;;11.82;61.61;96131.47;5040156;28;20528;-70
2023/04/01 02:19:26;;;;;;;1.00;0.77;;;;;;;11.94;61.53;96126.50;5051541;28;20423;-71
2023/04/01 02:21:55;;;;;;;1.80;0.70;;;;;;;11.96;61.31;96131.59;5047767;28;20457;-70
2023/04/01 02:24:23;;;;;;;2.80;0.77;;;;;;;11.90;61.42;96132.31;5045535;28;20479;-68
2023/04/01 02:26:50;;;;;;;1.73;0.60;;;;;;;11.80;61.59;96136.06;5043010;28;20441;-70
2023/04/01 02:29:18;;;;;;;1.77;0.90;;;;;;;11.83;61.38;96140.97;5046370;28;20457;-70
2023/04/01 02:31:44;;;;;;;5.70;0.80;;;;;;;11.68;61.30;96137.56;5048103;28;20449;-70
2023/04/01 02:34:10;;;;;;;1.10;0.60;;;;;;;11.78;61.47;96137.28;5047701;28;21001;-71
2023/04/01 02:36:36;;;;;;;1.97;0.60;;;;;;;11.73;60.95;96140.44;5055510;28;20265;-68
2023/04/01 02:39:02;;;;;;;2.70;0.70;;;;;;;11.59;61.38;96143.94;5051046;28;20198;-70
2023/04/01 02:41:28;;;;;;;1.50;0.60;;;;;;;11.75;61.10;96133.19;5048553;28;20804;-69
2023/04/01 02:43:54;;;;;;;1.20;0.70;;;;;;;11.73;60.74;96129.13;5044042;28;20528;-69
2023/04/01 02:46:20;;;;;;;6.73;0.70;;;;;;;11.64;60.93;96136.28;5044819;28;20195;-69
2023/04/01 02:48:45;;;;;;;1.77;0.60;;;;;;;11.62;60.83;96138.28;5062730;28;20435;-70
2023/04/01 02:51:11;;;;;;;1.40;0.80;;;;;;;11.55;61.23;96137.41;5054666;28;20631;-70
2023/04/01 02:53:36;;;;;;;1.97;0.50;;;;;;;11.50;60.90;96136.16;5049924;28;20321;-69
2023/04/01 02:56:01;;;;;;;1.10;0.50;;;;;;;11.46;60.81;96132.28;5051576;28;20262;-69
2023/04/01 02:58:27;;;;;;;1.83;0.60;;;;;;;11.43;61.03;96124.78;5050285;28;20274;-70
2023/04/01 03:00:52;;;;;;;1.53;0.60;;;;;;;11.40;61.11;96124.34;5061973;28;20625;-71
2023/04/01 03:03:18;;;;;;;0.80;0.50;;;;;;;11.32;61.27;96131.28;5047074;28;20598;-70
2023/04/01 03:05:43;;;;;;;1.87;0.50;;;;;;;11.45;60.81;96133.28;5052259;28;20218;-70
2023/04/01 03:08:09;;;;;;;3.43;0.70;;;;;;;11.53;61.00;96129.72;5050542;28;20278;-70
2023/04/01 03:10:34;;;;;;;1.90;0.70;;;;;;;11.57;60.54;96135.41;5047566;28;20641;-69
2023/04/01 03:12:59;;;;;;;0.90;0.50;;;;;;;11.20;60.96;96138.00;5050816;28;20217;-70
2023/04/01 03:15:25;;;;;;;1.87;0.60;;;;;;;11.49;60.63;96136.34;5050466;28;20219;-69
2023/04/01 03:17:51;;;;;;;0.97;0.50;;;;;;;11.58;60.52;96137.84;5050614;28;20278;-70
2023/04/01 03:20:16;;;;;;;1.13;0.50;;;;;;;11.56;60.12;96128.53;5058646;28;20191;-70
2023/04/01 03:22:42;;;;;;;2.17;0.60;;;;;;;11.64;60.32;96131.03;5061025;28;20186;-70
2023/04/01 03:25:08;;;;;;;1.23;0.50;;;;;;;11.63;60.41;96129.41;5046963;28;20273;-70
2023/04/01 03:27:35;;;;;;;2.27;0.67;;;;;;;11.59;60.02;96138.69;5045882;28;20186;-70
2023/04/01 03:30:01;;;;;;;1.50;0.60;;;;;;;11.68;59.87;96143.59;5050115;28;21212;-71
2023/04/01 03:32:27;;;;;;;2.30;0.60;;;;;;;11.63;59.92;96138.13;5049362;28;21025;-69
2023/04/01 03:34:53;;;;;;;1.10;0.60;;;;;;;11.72;59.88;96130.13;5042571;28;20449;-69
2023/04/01 03:37:18;;;;;;;1.07;0.57;;;;;;;11.72;59.27;96132.75;5029993;28;20511;-70
2023/04/01 03:39:44;;;;;;;6.63;0.60;;;;;;;11.59;59.65;96128.19;5039466;28;20266;-70
2023/04/01 03:42:09;;;;;;;0.73;0.40;;;;;;;11.34;59.26;96141.63;5039066;28;20248;-70
2023/04/01 03:44:35;;;;;;;1.30;0.50;;;;;;;11.34;59.56;96131.94;5034524;28;20242;-69
2023/04/01 03:47:00;;;;;;;1.57;0.67;;;;;;;11.46;59.51;96137.53;5044574;28;20244;-70
2023/04/01 03:49:26;;;;;;;3.13;0.80;;;;;;;11.53;59.16;96129.72;5048362;28;20206;-70
2023/04/01 03:51:51;;;;;;;1.37;0.50;;;;;;;11.49;59.19;96129.28;5049033;28;20573;-70
2023/04/01 03:54:17;;;;;;;1.00;0.60;;;;;;;11.59;59.06;96122.94;5038861;28;20203;-70
2023/04/01 03:56:43;;;;;;;1.40;0.53;;;;;;;11.56;58.99;96116.22;5039623;28;20215;-69
2023/04/01 03:59:09;;;;;;;0.83;0.57;;;;;;;11.62;58.77;96119.91;5032229;28;20420;-70
2023/04/01 04:01:34;;;;;;;2.80;0.57;;;;;;;11.50;58.68;96130.91;5043245;28;20207;-69
2023/04/01 04:04:00;;;;;;;2.30;0.60;;;;;;;11.49;58.86;96124.03;5048175;28;20206;-70
2023/04/01 04:06:26;;;;;;;1.40;0.60;;;;;;;11.31;58.82;96115.75;5047524;28;20745;-69
2023/04/01 04:08:51;;;;;;;1.90;0.60;;;;;;;11.42;58.93;96117.06;5054062;28;20186;-70
2023/04/01 04:11:17;;;;;;;1.70;0.60;;;;;;;11.55;58.56;96117.22;5046168;28;20581;-70
2023/04/01 04:13:43;;;;;;;2.70;0.60;;;;;;;11.57;58.64;96114.44;5044436;28;20294;-70
2023/04/01 04:16:09;;;;;;;0.80;0.50;;;;;;;11.56;58.39;96118.84;5039820;28;20221;-69
2023/04/01 04:18:35;;;;;;;1.20;0.60;;;;;;;11.52;58.25;96118.41;5045272;28;20517;-69
2023/04/01 04:21:01;;;;;;;0.83;0.50;;;;;;;11.53;58.05;96120.03;5034447;28;21215;-70
2023/04/01 04:23:28;;;;;;;1.40;0.77;;;;;;;11.48;57.76;96117.16;5035177;28;20426;-69
2023/04/01 04:25:58;;;;;;;2.63;0.60;;;;;;;11.54;57.94;96110.34;5035855;28;20182;-70
2023/04/01 04:28:25;;;;;;;3.23;0.60;;;;;;;11.52;58.02;96112.38;5046243;28;20457;-70
2023/04/01 04:30:50;;;;;;;1.60;0.60;;;;;;;11.46;58.25;96113.91;5031490;28;20434;-70
2023/04/01 04:33:16;;;;;;;1.33;0.70;;;;;;;11.24;58.27;96110.41;5039805;28;20453;-70
2023/04/01 04:35:41;;;;;;;1.63;0.67;;;;;;;11.38;58.26;96111.38;5046373;28;20293;-71
2023/04/01 04:38:06;;;;;;;1.30;0.60;;;;;;;11.32;58.22;96112.94;5053345;28;20400;-70
2023/04/01 04:40:32;;;;;;;1.83;0.60;;;;;;;11.27;58.58;96114.47;5038938;28;20243;-70
2023/04/01 04:42:57;;;;;;;2.20;0.90;;;;;;;11.29;58.60;96115.91;5039905;28;20194;-70
2023/04/01 04:45:23;;;;;;;0.80;0.50;;;;;;;11.33;58.43;96113.75;5037022;28;20234;-70
2023/04/01 04:47:48;;;;;;;1.87;0.70;;;;;;;11.29;58.71;96112.50;5041526;28;20184;-69
2023/04/01 04:50:14;;;;;;;2.00;0.80;;;;;;;11.25;58.95;96113.84;5043078;28;20211;-69
2023/04/01 04:52:39;;;;;;;2.00;0.60;;;;;;;11.25;58.58;96112.06;5047070;28;20241;-69
2023/04/01 04:55:05;;;;;;;1.27;0.60;;;;;;;11.19;59.16;96108.34;5047921;28;20218;-69
2023/04/01 04:57:31;;;;;;;0.90;0.47;;;;;;;11.13;59.33;96109.06;5046930;28;20205;-69
2023/04/01 04:59:56;;;;;;;1.93;0.60;;;;;;;11.16;59.29;96103.47;5046048;28;20800;-69
2023/04/01 05:02:22;;;;;;;1.10;0.73;;;;;;;11.18;59.41;96109.34;5047823;28;20214;-69
2023/04/01 05:04:47;;;;;;;1.10;0.60;;;;;;;11.28;59.47;96103.00;5041967;28;20183;-68
2023/04/01 05:07:12;;;;;;;1.40;0.70;;;;;;;11.34;59.15;96110.16;5049578;28;20187;-69
2023/04/01 05:09:38;;;;;;;1.10;0.50;;;;;;;11.32;59.04;96107.69;5032957;28;20278;-69
2023/04/01 05:12:03;;;;;;;2.70;0.80;;;;;;;11.22;59.29;96099.31;5047549;28;20223;-69
2023/04/01 05:14:29;;;;;;;3.87;0.93;;;;;;;11.11;59.97;96100.56;5051666;28;20210;-68
2023/04/01 05:16:54;;;;;;;3.70;0.80;;;;;;;11.12;60.11;96096.94;5047374;28;20274;-70
2023/04/01 05:19:20;;;;;;;1.20;0.50;;;;;;;11.21;60.25;96101.09;5050125;28;20225;-70
2023/04/01 05:21:45;;;;;;;4.27;1.30;;;;;;;11.18;60.30;96096.22;5036426;28;20212;-69
2023/04/01 05:24:11;;;;;;;2.70;1.00;;;;;;;11.24;60.09;96086.81;5047435;28;20187;-69
2023/04/01 05:26:36;;;;;;;1.97;0.70;;;;;;;11.12;60.24;96083.03;5043043;28;20656;-68
2023/04/01 05:29:03;;;;;;;4.43;0.97;;;;;;;11.19;60.23;96079.50;5035850;28;20196;-70
2023/04/01 05:31:29;;;;;;;1.80;0.80;;;;;;;11.21;60.30;96077.50;5039151;28;20214;-70
2023/04/01 05:33:54;;;;;;;2.53;0.87;;;;;;;11.30;60.14;96080.81;5044399;28;20461;-69
2023/04/01 05:36:20;;;;;;;1.70;0.90;;;;;;;11.31;60.19;96086.91;5033962;28;20198;-69
2023/04/01 05:38:46;;;;;;;2.53;0.70;;;;;;;11.34;60.01;96086.53;5048106;28;20195;-70
2023/04/01 05:41:11;;;;;;;4.10;0.80;;;;;;;11.22;59.81;96084.38;5042728;28;20795;-70
2023/04/01 05:43:37;;;;;;;3.80;1.20;;;;;;;11.21;60.10;96077.50;5040280;28;20520;-70
2023/04/01 05:46:03;;;;;;;3.23;0.90;;;;;;;11.22;60.06;96079.13;5045091;28;20183;-69
2023/04/01 05:48:28;;;;;;;2.47;0.70;;;;;;;11.37;59.71;96073.84;5036080;28;20433;-69
2023/04/01 05:50:54;;;;;;;3.90;1.10;;;;;;;11.40;59.29;96074.50;5047289;28;20290;-71
2023/04/01 05:53:19;;;;;;;3.47;0.90;;;;;;;11.44;59.05;96073.94;5047702;28;20214;-69
2023/04/01 05:55:45;;;;;;;5.40;0.70;;;;;;;11.44;58.71;96089.69;5045717;28;20191;-68
2023/04/01 05:58:10;;;;;;;2.20;0.90;;;;;;;11.50;58.80;96086.28;5042016;28;20194;-70
2023/04/01 06:00:36;;;;;;;2.97;0.90;;;;;;;11.61;58.17;96084.19;5038126;28;20644;-69
2023/04/01 06:03:01;;;;;;;2.60;0.93;;;;;;;11.62;58.39;96080.56;5048497;28;20269;-69
2023/04/01 06:05:29;;;;;;;2.47;0.90;;;;;;;11.41;58.21;96070.84;5038207;28;20218;-69
2023/04/01 06:07:59;;;;;;;4.40;1.10;;;;;;;11.43;57.68;96051.31;5036134;28;20230;-69
2023/04/01 06:10:41;;;;;;;2.50;0.93;;;;;;;11.69;57.59;96068.34;5056552;28;20475;-69
2023/04/01 06:13:12;;;;;;;2.60;0.80;;;;;;;11.92;57.06;96060.25;5044173;28;20465;-70
2023/04/01 06:16:00;;;;;;;1.57;0.70;;;;;;;11.77;56.71;96060.31;5069343;28;20434;-70
2023/04/01 06:18:31;;;;;;;2.70;0.80;;;;;;;11.99;55.99;96057.72;5067195;28;20434;-72
2023/04/01 06:21:14;;;;;;;1.60;0.77;;;;;;;12.16;55.52;96053.00;5062737;28;20432;-70
2023/04/01 06:24:01;;;;;;;2.60;0.97;;;;;;;12.07;55.76;96054.13;5078351;28;20612;-69
2023/04/01 06:26:55;;;;;;;1.87;0.90;;;;;;;12.23;55.16;96058.28;5055323;28;20426;-70
2023/04/01 06:29:53;;;;;;;1.77;0.83;;;;;;;12.24;55.15;96057.28;5051663;28;20457;-71
2023/04/01 06:32:18;;;;;;;1.93;0.87;;;;;;;12.25;55.46;96053.66;5034132;28;20477;-70
2023/04/01 06:34:53;;;;;;;4.70;0.80;;;;;;;12.21;55.36;96057.69;5049691;28;20500;-69
2023/04/01 06:37:43;;;;;;;5.73;0.90;;;;;;;12.22;55.33;96062.75;5051077;28;20201;-71
2023/04/01 06:40:33;;;;;;;2.00;0.90;;;;;;;12.11;55.37;96064.06;5048036;28;20433;-70
2023/04/01 06:43:05;;;;;;;3.37;0.90;;;;;;;11.99;56.22;96073.47;5038006;28;20430;-70
2023/04/01 06:45:48;;;;;;;2.00;0.83;;;;;;;11.74;56.99;96067.78;5050565;28;20433;-70
2023/04/01 06:48:37;;;;;;;1.37;0.50;;;;;;;11.80;56.55;96072.25;5043008;28;20791;-72
2023/04/01 06:51:21;;;;;;;2.10;0.70;;;;;;;12.00;56.78;96061.97;5036663;28;20449;-72
2023/04/01 06:53:54;;;;;;;2.63;0.83;;;;;;;12.12;56.58;96064.91;5034042;28;21013;-71
2023/04/01 06:56:21;;;;;;;5.77;0.90;;;;;;;11.94;56.72;96062.69;5036725;28;20449;-71
2023/04/01 06:58:54;;;;;;;1.83;0.70;;;;;;;11.93;57.18;96061.88;5037998;28;20438;-72
2023/04/01 07:01:28;;;;;;;2.20;0.70;;;;;;;12.04;56.88;96068.47;5036616;28;20880;-71
2023/04/01 07:03:55;;;;;;;3.40;0.80;;;;;;;12.05;56.67;96085.03;5033255;28;20954;-73
2023/04/01 07:06:28;;;;;;;1.23;0.70;;;;;;;11.71;57.13;96078.63;5043818;28;20421;-70
2023/04/01 07:09:00;;;;;;;1.60;0.70;;;;;;;11.83;57.54;96072.72;5032618;28;21239;-71
2023/04/01 07:11:29;;;;;;;2.70;0.60;;;;;;;11.83;57.46;96067.47;5030425;28;20446;-72
2023/04/01 07:14:00;;;;;;;3.30;0.70;;;;;;;11.70;57.64;96069.97;5036214;28;20799;-72
2023/04/01 07:16:43;;;;;;;2.00;1.23;;;;;;;11.73;57.87;96082.69;5039443;28;20457;-71
2023/04/01 07:19:32;;;;;;;2.03;0.83;;;;;;;11.93;58.28;96055.81;5037473;28;20429;-71
2023/04/01 07:22:09;;;;;;;3.37;1.10;;;;;;;11.94;58.29;96070.56;5036569;28;20457;-71
2023/04/01 07:24:37;;;;;;;2.07;0.77;;;;;;;11.78;58.31;96079.53;5030866;28;20422;-71
2023/04/01 07:27:08;;;;;;;2.23;0.80;;;;;;;11.72;58.00;96078.44;5041284;28;20811;-71
2023/04/01 07:29:34;;;;;;;3.43;0.70;;;;;;;11.91;57.96;96081.44;5030503;28;20429;-71
2023/04/01 07:32:02;;;;;;;3.03;0.87;;;;;;;11.97;57.85;96083.34;5035812;28;20530;-71
2023/04/01 07:34:34;;;;;;;3.47;0.80;;;;;;;11.92;58.00;96077.81;5037643;28;20835;-70
2023/04/01 07:37:10;;;;;;;3.83;2.17;;;;;;;11.98;57.72;96092.84;5044504;28;20989;-71
2023/04/01 07:40:03;;;;;;;2.27;0.70;;;;;;;12.10;57.87;96101.03;5040407;28;20433;-71
2023/04/01 07:42:54;;;;;;;1.43;0.70;;;;;;;12.13;57.25;96090.97;5037556;28;20556;-72
2023/04/01 07:45:34;;;;;;;3.10;0.80;;;;;;;12.17;57.07;96090.59;5043856;28;20909;-72
2023/04/01 07:48:15;;;;;;;1.73;0.70;;;;;;;12.18;56.79;96090.38;5024355;28;21142;-72
2023/04/01 07:50:49;;;;;;;1.97;0.87;;;;;;;12.33;56.75;96095.56;5050600;28;20453;-72
2023/04/01 07:53:39;;;;;;;1.53;0.90;;;;;;;12.25;56.96;96095.69;5041046;28;20483;-71
2023/04/01 07:56:10;;;;;;;3.20;0.90;;;;;;;12.25;56.58;96095.69;5039655;28;20533;-72
2023/04/01 07:58:44;;;;;;;1.87;0.70;;;;;;;12.21;56.57;96104.97;5046729;28;20441;-72
2023/04/01 08:01:29;;;;;;;3.20;0.60;;;;;;;12.33;56.65;96106.09;5056209;28;20850;-71
2023/04/01 08:04:17;;;;;;;3.70;0.90;;;;;;;12.36;56.89;96095.19;5047663;28;20435;-72
2023/04/01 08:06:47;;;;;;;2.50;0.70;;;;;;;12.36;56.73;96107.50;5048795;28;20421;-73
2023/04/01 08:09:30;;;;;;;2.33;0.70;;;;;;;12.20;57.68;96103.34;5043522;28;20462;-72
2023/04/01 08:12:20;;;;;;;3.00;0.90;;;;;;;12.31;57.33;96117.78;5045320;28;20505;-72
2023/04/01 08:14:53;;;;;;;1.10;0.60;;;;;;;12.27;57.83;96099.78;5055770;28;20464;-72
2023/04/01 08:17:32;;;;;;;1.20;0.70;;;;;;;12.27;57.68;96104.22;5040159;28;21035;-72
2023/04/01 08:20:04;;;;;;;3.53;0.80;;;;;;;12.47;57.97;96104.38;5039182;28;20516;-72
2023/04/01 08:22:33;;;;;;;3.80;0.80;;;;;;;12.50;57.74;96097.91;5047839;28;20457;-72
2023/04/01 08:25:02;;;;;;;1.93;0.80;;;;;;;12.45;57.80;96106.38;5047435;28;20525;-72
2023/04/01 08:28:04;;;;;;;1.00;0.70;;;;;;;12.37;58.37;96109.13;5043797;28;20421;-73
2023/04/01 08:30:49;;;;;;;1.30;0.60;;;;;;;12.56;58.36;96112.91;5038573;28;20459;-72
2023/04/01 08:33:27;;;;;;;3.73;1.00;;;;;;;12.44;58.43;96121.34;5037914;28;20539;-72
2023/04/01 08:35:57;;;;;;;1.67;0.70;;;;;;;12.35;58.00;96119.81;5049442;28;20444;-71
2023/04/01 08:38:58;;;;;;;2.40;0.70;;;;;;;12.29;59.17;96133.72;5042280;28;20511;-71
2023/04/01 08:41:32;;;;;;;1.13;0.60;;;;;;;12.07;59.79;96125.88;5047291;28;20473;-71
2023/04/01 08:44:28;;;;;;;3.40;0.80;;;;;;;12.21;59.63;96128.63;5046239;28;20432;-73
2023/04/01 08:47:07;;;;;;;3.33;0.53;;;;;;;12.33;59.59;96129.72;5046005;28;20436;-72
2023/04/01 08:50:10;;;;;;;7.67;0.60;;;;;;;12.03;60.27;96123.81;5047541;28;21040;-72
2023/04/01 08:52:58;;;;;;;1.30;0.60;;;;;;;11.96;60.78;96121.09;5041931;28;20446;-72
2023/04/01 08:55:45;;;;;;;1.00;0.57;;;;;;;11.84;60.97;96105.81;5048654;28;20441;-72
2023/04/01 08:58:17;;;;;;;1.00;0.70;;;;;;;11.90;61.00;96104.28;5056146;28;20449;-72
2023/04/01 09:01:02;;;;;;;1.43;0.60;;;;;;;12.00;61.05;96109.22;5047491;28;20452;-71
2023/04/01 09:03:43;;;;;;;2.60;0.60;;;;;;;11.90;60.93;96108.69;5047193;28;20418;-72
2023/04/01 09:06:17;;;;;;;1.00;0.77;;;;;;;12.02;60.55;96117.72;5055235;28;20424;-72
2023/04/01 09:08:43;;;;;;;4.47;0.70;;;;;;;11.78;61.12;96111.81;5047109;28;20425;-71
2023/04/01 09:11:30;;;;;;;1.77;0.73;;;;;;;11.94;61.27;96104.72;5056685;28;21080;-71
2023/04/01 09:14:07;;;;;;;1.20;0.83;;;;;;;11.98;61.29;96105.97;5054501;28;20207;-71
2023/04/01 09:17:17;;;;;;;2.03;0.90;;;;;;;12.19;61.26;96106.97;5051543;28;20518;-71
2023/04/01 09:19:59;;;;;;;1.33;0.80;;;;;;;12.36;61.04;96115.41;5039141;28;20435;-72
2023/04/01 09:22:39;;;;;;;0.90;0.60;;;;;;;12.53;59.55;96119.38;5045254;28;20449;-72
2023/04/01 09:25:42;;;;;;;1.43;0.70;;;;;;;12.71;59.75;96120.69;5029588;28;20440;-71
2023/04/01 09:28:20;;;;;;;4.60;0.70;;;;;;;12.92;57.71;96109.31;5042419;28;20424;-71
2023/04/01 09:30:58;;;;;;;1.00;0.53;;;;;;;13.12;58.56;96116.47;5037799;28;21065;-72
2023/04/01 09:33:41;;;;;;;1.00;0.60;;;;;;;12.99;57.70;96133.81;5035341;28;21103;-71
2023/04/01 09:36:18;;;;;;;0.90;0.50;;;;;;;13.01;57.92;96126.53;5048056;28;20824;-72
2023/04/01 09:38:56;;;;;;;1.30;0.60;;;;;;;13.11;57.47;96130.63;5015174;28;20430;-71
2023/04/01 09:41:32;;;;;;;0.90;0.60;;;;;;;12.84;56.77;96130.50;5038889;28;20452;-72
2023/04/01 09:44:03;;;;;;;1.00;0.60;;;;;;;12.90;56.82;96134.97;5040324;28;20429;-72
2023/04/01 09:46:58;;;;;;;1.03;0.50;;;;;;;12.91;57.63;96133.97;5043979;28;20422;-71
2023/04/01 09:49:56;;;;;;;1.10;0.60;;;;;;;12.44;56.77;96155.50;5032325;28;20842;-72
2023/04/01 09:52:55;;;;;;;1.10;0.53;;;;;;;12.63;57.38;96140.06;5033903;28;20646;-71
2023/04/01 09:55:49;;;;;;;2.47;0.60;;;;;;;12.61;57.24;96136.78;5040169;28;20430;-72
2023/04/01 09:58:51;;;;;;;1.60;0.57;;;;;;;12.54;56.82;96138.56;5035814;28;20430;-71
2023/04/01 10:01:34;;;;;;;3.57;2.40;;;;;;;12.55;57.65;96137.56;5030260;28;20450;-71
2023/04/01 10:04:11;;;;;;;1.53;0.77;;;;;;;12.58;56.79;96143.25;5049522;28;20426;-72
2023/04/01 10:07:01;;;;;;;1.30;0.70;;;;;;;12.57;57.59;96136.38;5039339;28;20453;-71
2023/04/01 10:09:51;;;;;;;0.93;0.60;;;;;;;12.47;57.29;96145.59;5046763;28;20529;-71
2023/04/01 10:12:38;;;;;;;0.80;0.50;;;;;;;12.65;57.60;96142.50;5036050;28;20548;-69
2023/04/01 10:15:39;;;;;;;0.80;0.50;;;;;;;12.61;56.43;96155.19;5039375;28;20468;-70
2023/04/01 10:18:23;;;;;;;0.90;0.50;;;;;;;12.74;56.23;96152.66;5045415;28;20436;-70
2023/04/01 10:20:55;;;;;;;1.00;0.60;;;;;;;12.60;56.02;96161.47;5039655;28;20451;-70
2023/04/01 10:23:39;;;;;;;1.00;0.67;;;;;;;12.66;56.11;96144.13;5034713;28;20975;-71
2023/04/01 10:26:49;;;;;;;0.80;0.57;;;;;;;12.90;55.39;96148.13;5038564;28;20440;-69
2023/04/01 10:29:20;;;;;;;1.00;0.60;;;;;;;13.21;55.00;96141.63;5029794;28;20433;-71
2023/04/01 10:32:04;;;;;;;1.00;0.63;;;;;;;13.59;54.86;96148.28;5042482;28;20453;-69
2023/04/01 10:34:41;;;;;;;0.80;0.50;;;;;;;13.61;53.25;96147.06;5041676;28;20469;-72
2023/04/01 10:37:24;;;;;;;0.80;0.50;;;;;;;13.86;53.39;96148.38;5046851;28;20426;-71
2023/04/01 10:40:07;;;;;;;1.00;0.70;;;;;;;13.89;52.09;96161.16;5045070;28;20445;-71
2023/04/01 10:42:54;;;;;;;2.27;0.50;;;;;;;14.23;51.75;96149.66;5032839;28;20450;-71
2023/04/01 10:45:19;;;;;;;2.50;0.60;;;;;;;14.25;50.63;96150.25;5046621;28;20854;-71
2023/04/01 10:48:22;;;;;;;1.10;0.50;;;;;;;14.15;51.14;96155.09;5052987;28;20528;-73
2023/04/01 10:51:00;;;;;;;0.80;0.50;;;;;;;13.95;50.77;96147.16;5046495;28;20578;-70
2023/04/01 10:53:31;;;;;;;1.47;0.80;;;;;;;14.32;50.98;96152.09;5041956;28;20578;-72
2023/04/01 10:56:09;;;;;;;0.90;0.60;;;;;;;14.31;50.45;96150.47;5051855;28;20436;-72
2023/04/01 10:58:58;;;;;;;1.07;0.50;;;;;;;14.41;50.08;96153.50;5054609;28;20441;-71
2023/04/01 11:01:54;;;;;;;0.90;0.50;;;;;;;14.49;49.41;96158.56;5051493;28;20525;-71
2023/04/01 11:04:44;;;;;;;1.00;0.60;;;;;;;14.49;49.42;96158.56;5040166;28;20463;-71
2023/04/01 11:07:26;;;;;;;1.10;0.50;;;;;;;14.34;49.66;96147.44;5039448;28;20488;-72
2023/04/01 11:10:17;;;;;;;0.87;0.50;;;;;;;13.82;50.34;96161.13;5046001;28;20478;-72
2023/04/01 11:13:06;;;;;;;0.90;0.60;;;;;;;13.96;50.38;96149.63;5049618;28;20481;-71
2023/04/01 11:15:55;;;;;;;1.30;0.60;;;;;;;13.57;51.33;96161.66;5034712;28;20517;-71
2023/04/01 11:18:53;;;;;;;0.83;0.53;;;;;;;13.94;50.78;96150.81;5041825;28;20930;-73
2023/04/01 11:22:09;;;;;;;0.80;0.50;;;;;;;14.01;50.59;96159.56;5040604;28;20482;-71
2023/04/01 11:24:46;;;;;;;0.90;0.50;;;;;;;13.86;50.74;96157.06;5011976;28;20440;-72
2023/04/01 11:27:37;;;;;;;1.33;0.60;;;;;;;13.83;50.63;96165.38;5047467;28;20523;-72
2023/04/01 11:30:16;;;;;;;0.80;0.50;;;;;;;13.86;50.50;96154.44;5045509;28;20462;-72
2023/04/01 11:32:43;;;;;;;0.83;0.60;;;;;;;14.01;50.15;96169.25;5051615;28;20518;-72
2023/04/01 11:35:28;;;;;;;3.77;0.57;;;;;;;14.08;50.19;96167.47;5052101;28;20816;-72
2023/04/01 11:38:15;;;;;;;2.40;0.60;;;;;;;13.84;50.22;96169.66;5029896;28;20448;-72
2023/04/01 11:40:48;;;;;;;0.80;0.50;;;;;;;14.10;49.97;96165.44;5038175;28;20437;-72
2023/04/01 11:43:21;;;;;;;0.70;0.40;;;;;;;14.01;50.06;96171.91;5043987;28;20425;-72
2023/04/01 11:45:53;;;;;;;0.80;0.50;;;;;;;14.26;49.78;96174.78;5032258;28;21040;-72
2023/04/01 11:48:37;;;;;;;1.10;0.60;;;;;;;14.17;49.63;96171.53;5053317;28;20438;-71
2023/04/01 11:51:47;;;;;;;0.80;0.50;;;;;;;14.29;49.63;96175.19;5059006;28;20456;-71
2023/04/01 11:54:34;;;;;;;1.00;0.70;;;;;;;14.03;50.16;96185.69;5035368;28;21004;-72
2023/04/01 11:57:24;;;;;;;1.00;0.53;;;;;;;14.08;50.18;96172.75;5041053;28;20533;-72
2023/04/01 12:00:01;;;;;;;1.00;0.60;;;;;;;13.69;50.49;96190.03;5053683;28;20560;-71
2023/04/01 12:03:04;;;;;;;1.43;0.50;;;;;;;13.69;51.03;96179.50;5050017;28;20474;-72
2023/04/01 12:05:30;;;;;;;1.13;0.50;;;;;;;13.66;50.94;96186.00;5033096;28;20436;-71
2023/04/01 12:08:40;;;;;;;0.70;0.40;;;;;;;13.91;50.75;96188.09;5041344;28;20437;-71